Terminal Aerodrome Forecast
Issued by NWS

Home | Current Version | Previous Version | Text Only | Print | Product List | Glossary On
Versions: 1 2 3 4 5 6 7 8 9 10 11 12 13 14 15
467
FTUS43 KMQT 042334
TAFSAW
TAF
KSAW 042334Z 0500/0524 36011G16KT P6SM BKN030
     FM050200 35009KT P6SM SCT030
     FM050400 35004KT P6SM SKC
     FM051700 04006KT P6SM SKC
     FM052300 14004KT P6SM SKC=

USA.gov is the U.S. government's official web portal to all federal, state and local government web resources and services.